createdAt,value
2018-08-12T00:00:44.847Z,61.59
2018-08-12T00:01:44.871Z,61.41
2018-08-12T00:02:44.820Z,61.52
2018-08-12T00:03:44.811Z,61.19
2018-08-12T00:04:45.492Z,60.88
2018-08-12T00:05:44.789Z,60.98
2018-08-12T00:06:44.776Z,60.38
2018-08-12T00:07:44.820Z,61.08
2018-08-12T00:08:44.754Z,61.01
2018-08-12T00:09:45.175Z,61.62
2018-08-12T00:10:44.735Z,61.32
2018-08-12T00:11:44.723Z,61.21
2018-08-12T00:12:44.713Z,61.41
2018-08-12T00:13:44.747Z,61.21
2018-08-12T00:14:44.697Z,61.52
2018-08-12T00:15:44.697Z,61.52
2018-08-12T00:16:44.671Z,61.72
2018-08-12T00:17:44.659Z,61.32
2018-08-12T00:18:44.646Z,61.52
2018-08-12T00:19:44.674Z,60.91
2018-08-12T00:20:44.645Z,61.32
2018-08-12T00:21:44.613Z,61.72
2018-08-12T00:22:44.605Z,61.52
2018-08-12T00:23:44.648Z,62.12
2018-08-12T00:24:44.624Z,61.82
2018-08-12T00:25:44.674Z,62.15
2018-08-12T00:26:44.568Z,61.35
2018-08-12T00:27:44.575Z,61.52
2018-08-12T00:28:44.667Z,60.61
2018-08-12T00:29:44.536Z,61.11
2018-08-12T00:30:44.578Z,60.30
2018-08-12T00:31:44.672Z,61.32
2018-08-12T00:32:44.494Z,60.50
2018-08-12T00:33:44.484Z,60.10
2018-08-12T00:34:44.474Z,61.62
2018-08-12T00:35:44.480Z,60.50
2018-08-12T00:36:44.456Z,60.27
2018-08-12T00:37:44.493Z,61.01
2018-08-12T00:38:44.429Z,60.91
2018-08-12T00:39:44.422Z,61.01
2018-08-12T00:40:44.422Z,61.62
2018-08-12T00:41:44.400Z,62.05
2018-08-12T00:42:44.384Z,61.04
2018-08-12T00:43:44.421Z,61.32
2018-08-12T00:44:44.364Z,61.72
2018-08-12T00:45:44.371Z,61.62
2018-08-12T00:46:44.347Z,61.62
2018-08-12T00:47:44.329Z,60.41
2018-08-12T00:48:44.319Z,62.26
2018-08-12T00:49:44.356Z,61.55
2018-08-12T00:50:44.311Z,62.35
2018-08-12T00:51:44.287Z,62.26
2018-08-12T00:52:44.277Z,62.26
2018-08-12T00:53:44.266Z,61.65
2018-08-12T00:54:44.261Z,62.26
2018-08-12T00:55:44.289Z,61.65
2018-08-12T00:56:44.235Z,62.35
2018-08-12T00:57:44.221Z,61.52
2018-08-12T00:58:44.216Z,61.21
2018-08-12T00:59:44.203Z,61.01
2018-08-12T01:00:44.202Z,60.71
2018-08-12T01:01:44.222Z,60.30
2018-08-12T01:02:44.167Z,60.50
2018-08-12T01:03:44.157Z,61.01
2018-08-12T01:04:44.157Z,60.81
2018-08-12T01:05:44.148Z,62.73
2018-08-12T01:06:44.126Z,61.72
2018-08-12T01:07:44.143Z,61.55
2018-08-12T01:08:44.101Z,62.05
2018-08-12T01:09:44.092Z,61.85
2018-08-12T01:10:44.096Z,62.86
2018-08-12T01:11:44.068Z,62.59
2018-08-12T01:12:44.056Z,63.30
2018-08-12T01:13:44.097Z,62.79
2018-08-12T01:14:44.040Z,62.38
2018-08-12T01:15:44.055Z,62.89
2018-08-12T01:16:44.025Z,62.99
2018-08-12T01:17:44.003Z,62.38
2018-08-12T01:18:43.994Z,62.79
2018-08-12T01:19:44.021Z,62.29
2018-08-12T01:20:43.985Z,62.38
2018-08-12T01:21:43.958Z,62.66
2018-08-12T01:22:43.949Z,62.29
2018-08-12T01:23:43.941Z,62.18
2018-08-12T01:24:43.929Z,61.75
2018-08-12T01:25:43.987Z,61.95
2018-08-12T01:26:43.908Z,61.65
2018-08-12T01:27:43.893Z,61.95
2018-08-12T01:28:43.882Z,61.35
2018-08-12T01:29:43.871Z,61.95
2018-08-12T01:30:43.875Z,62.26
2018-08-12T01:31:43.896Z,62.15
2018-08-12T01:32:43.845Z,61.65
2018-08-12T01:33:43.828Z,61.27
2018-08-12T01:34:43.817Z,61.44
2018-08-12T01:35:43.821Z,62.46
2018-08-12T01:36:43.805Z,61.65
2018-08-12T01:37:43.855Z,62.08
2018-08-12T01:38:43.783Z,61.44
2018-08-12T01:39:43.762Z,62.49
2018-08-12T01:40:43.759Z,62.41
2018-08-12T01:41:43.759Z,63.02
2018-08-12T01:42:43.730Z,62.41
2018-08-12T01:43:43.766Z,62.29
2018-08-12T01:44:43.708Z,62.38
2018-08-12T01:45:43.696Z,62.18
2018-08-12T01:46:43.699Z,62.69
2018-08-12T01:47:43.684Z,62.52
2018-08-12T01:48:43.662Z,63.63
2018-08-12T01:49:43.710Z,64.67
2018-08-12T01:50:43.644Z,65.31
2018-08-12T01:51:43.679Z,65.82
2018-08-12T01:52:43.674Z,67.68
2018-08-12T01:53:43.645Z,68.22
2018-08-12T01:54:43.734Z,69.34
2018-08-12T01:55:43.796Z,69.30
2018-08-12T01:56:43.591Z,71.06
2018-08-12T01:57:43.568Z,70.65
2018-08-12T01:58:43.557Z,71.40
2018-08-12T01:59:43.545Z,71.43
2018-08-12T02:00:43.539Z,72.41
2018-08-12T02:01:43.592Z,72.96
2018-08-12T02:02:43.515Z,73.19
2018-08-12T02:03:44.566Z,75.23
2018-08-12T02:04:43.488Z,75.54
2018-08-12T02:05:43.484Z,74.93
2018-08-12T02:06:43.651Z,75.88
2018-08-12T02:07:43.487Z,75.37
2018-08-12T02:08:43.446Z,75.60
2018-08-12T02:09:43.665Z,76.12
2018-08-12T02:10:43.421Z,76.32
2018-08-12T02:11:43.434Z,77.07
2018-08-12T02:12:43.412Z,78.30
2018-08-12T02:13:43.436Z,78.02
2018-08-12T02:14:43.379Z,78.53
2018-08-12T02:15:43.370Z,78.77
2018-08-12T02:16:43.372Z,80.10
2018-08-12T02:17:43.871Z,79.63
2018-08-12T02:18:43.336Z,80.48
2018-08-12T02:19:43.385Z,81.20
2018-08-12T02:20:43.316Z,82.42
2018-08-12T02:21:43.315Z,82.12
2018-08-12T02:22:43.301Z,81.10
2018-08-12T02:23:43.291Z,82.53
2018-08-12T02:24:45.677Z,82.73
2018-08-12T02:25:43.257Z,82.56
2018-08-12T02:26:43.279Z,82.26
2018-08-12T02:27:43.235Z,83.07
2018-08-12T02:28:43.225Z,82.97
2018-08-12T02:29:43.213Z,83.32
2018-08-12T02:30:43.259Z,83.52
2018-08-12T02:31:43.193Z,84.55
2018-08-12T02:32:43.207Z,84.44
2018-08-12T02:33:43.169Z,84.17
2018-08-12T02:34:43.165Z,84.69
2018-08-12T02:35:43.149Z,85.06
2018-08-12T02:36:43.195Z,85.30
2018-08-12T02:37:43.142Z,85.61
2018-08-12T02:38:43.113Z,84.79
2018-08-12T02:39:43.653Z,84.99
2018-08-12T02:40:43.095Z,85.91
2018-08-12T02:41:43.082Z,86.16
2018-08-12T02:42:43.140Z,86.77
2018-08-12T02:43:43.066Z,86.77
2018-08-12T02:44:43.055Z,86.88
2018-08-12T02:45:43.037Z,87.70
2018-08-12T02:46:43.036Z,87.43
2018-08-12T02:47:43.034Z,88.82
2018-08-12T02:48:43.815Z,88.68
2018-08-12T02:49:42.999Z,87.82
2018-08-12T02:50:42.985Z,87.10
2018-08-12T02:51:42.985Z,86.29
2018-08-12T02:52:42.992Z,86.59
2018-08-12T02:53:42.951Z,86.38
2018-08-12T02:54:43.642Z,85.77
2018-08-12T02:55:42.929Z,85.97
2018-08-12T02:56:42.925Z,85.88
2018-08-12T02:57:42.919Z,86.43
2018-08-12T02:58:42.910Z,87.76
2018-08-12T02:59:42.888Z,86.94
2018-08-12T03:00:42.901Z,86.63
2018-08-12T03:01:42.863Z,88.62
2018-08-12T03:02:42.854Z,87.70
2018-08-12T03:03:42.863Z,85.85
2018-08-12T03:04:42.836Z,86.77
2018-08-12T03:05:42.820Z,87.84
2018-08-12T03:06:42.856Z,86.91
2018-08-12T03:07:42.798Z,87.26
2018-08-12T03:08:42.808Z,87.67
2018-08-12T03:09:43.363Z,89.83
2018-08-12T03:10:42.766Z,90.69
2018-08-12T03:11:42.765Z,89.21
2018-08-12T03:12:42.792Z,90.54
2018-08-12T03:13:42.750Z,90.03
2018-08-12T03:14:42.729Z,90.23
2018-08-12T03:15:42.713Z,90.58
2018-08-12T03:16:42.701Z,90.37
2018-08-12T03:17:42.691Z,90.28
2018-08-12T03:18:42.738Z,91.50
2018-08-12T03:19:42.671Z,91.50
2018-08-12T03:20:42.662Z,90.89
2018-08-12T03:21:42.659Z,90.07
2018-08-12T03:22:42.737Z,89.90
2018-08-12T03:23:42.760Z,89.70
2018-08-12T03:24:42.712Z,91.90
2018-08-12T03:25:42.669Z,91.69
2018-08-12T03:26:42.595Z,91.90
2018-08-12T03:27:42.580Z,91.80
2018-08-12T03:28:42.584Z,92.10
2018-08-12T03:29:42.566Z,92.93
2018-08-12T03:30:42.590Z,93.44
2018-08-12T03:31:42.538Z,93.85
2018-08-12T03:32:42.531Z,93.54
2018-08-12T03:33:42.535Z,93.54
2018-08-12T03:34:42.503Z,93.23
2018-08-12T03:35:42.493Z,92.14
2018-08-12T03:36:42.544Z,92.93
2018-08-12T03:37:42.477Z,93.07
2018-08-12T03:38:42.477Z,92.46
2018-08-12T03:39:43.205Z,92.86
2018-08-12T03:40:42.437Z,93.68
2018-08-12T03:41:42.428Z,93.85
2018-08-12T03:42:42.467Z,93.44
2018-08-12T03:43:42.423Z,93.59
2018-08-12T03:44:42.393Z,94.05
2018-08-12T03:45:42.393Z,93.17
2018-08-12T03:46:42.373Z,94.20
2018-08-12T03:47:42.366Z,94.56
2018-08-12T03:48:42.435Z,94.32
2018-08-12T03:49:42.342Z,94.01
2018-08-12T03:50:42.328Z,93.49
2018-08-12T03:51:42.318Z,93.08
2018-08-12T03:52:42.307Z,93.23
2018-08-12T03:53:42.300Z,93.55
2018-08-12T03:54:43.167Z,92.44
2018-08-12T03:55:42.275Z,90.21
2018-08-12T03:56:42.265Z,88.98
2018-08-12T03:57:42.259Z,88.78
2018-08-12T03:58:42.242Z,87.96
2018-08-12T03:59:42.247Z,88.00
2018-08-12T04:00:42.260Z,87.70
2018-08-12T04:01:42.206Z,88.35
2018-08-12T04:02:42.197Z,88.65
2018-08-12T04:03:42.188Z,87.98
2018-08-12T04:04:42.190Z,89.72
2018-08-12T04:05:42.166Z,91.20
2018-08-12T04:06:42.208Z,91.40
2018-08-12T04:07:42.151Z,91.40
2018-08-12T04:08:42.129Z,91.30
2018-08-12T04:09:42.926Z,91.82
2018-08-12T04:10:42.117Z,92.43
2018-08-12T04:11:42.099Z,92.02
2018-08-12T04:12:42.161Z,91.14
2018-08-12T04:13:42.077Z,90.01
2018-08-12T04:14:42.080Z,91.59
2018-08-12T04:15:42.054Z,92.51
2018-08-12T04:16:42.041Z,93.23
2018-08-12T04:17:42.035Z,92.72
2018-08-12T04:18:42.051Z,92.21
2018-08-12T04:19:42.035Z,91.94
2018-08-12T04:20:41.999Z,93.27
2018-08-12T04:21:41.992Z,93.07
2018-08-12T04:22:41.977Z,92.76
2018-08-12T04:23:41.965Z,93.42
2018-08-12T04:24:42.895Z,93.63
2018-08-12T04:25:41.959Z,94.04
2018-08-12T04:26:41.940Z,93.73
2018-08-12T04:27:41.932Z,94.14
2018-08-12T04:28:41.910Z,94.55
2018-08-12T04:29:41.899Z,94.65
2018-08-12T04:30:41.952Z,94.45
2018-08-12T04:31:41.880Z,94.34
2018-08-12T04:32:41.871Z,94.29
2018-08-12T04:33:41.921Z,94.70
2018-08-12T04:34:41.846Z,95.17
2018-08-12T04:35:41.850Z,95.27
2018-08-12T04:36:41.864Z,95.78
2018-08-12T04:37:41.812Z,95.31
2018-08-12T04:38:41.804Z,95.68
2018-08-12T04:39:41.801Z,95.78
2018-08-12T04:40:41.795Z,96.30
2018-08-12T04:41:41.842Z,96.19
2018-08-12T04:42:41.760Z,95.98
2018-08-12T04:43:41.744Z,95.89
2018-08-12T04:44:41.734Z,96.15
2018-08-12T04:45:41.738Z,96.04
2018-08-12T04:46:41.733Z,95.57
2018-08-12T04:47:41.863Z,95.68
2018-08-12T04:48:41.781Z,96.25
2018-08-12T04:49:41.777Z,96.35
2018-08-12T04:50:41.747Z,95.64
2018-08-12T04:51:41.660Z,95.43
2018-08-12T04:52:41.653Z,95.12
2018-08-12T04:53:41.636Z,95.32
2018-08-12T04:54:41.671Z,95.53
2018-08-12T04:55:41.639Z,95.53
2018-08-12T04:56:41.608Z,95.74
2018-08-12T04:57:41.595Z,95.64
2018-08-12T04:58:41.584Z,95.43
2018-08-12T04:59:41.576Z,95.39
2018-08-12T05:00:41.634Z,95.59
2018-08-12T05:01:41.566Z,95.69
2018-08-12T05:02:41.536Z,95.59
2018-08-12T05:03:41.528Z,95.90
2018-08-12T05:04:45.199Z,95.69
2018-08-12T05:05:41.531Z,96.06
2018-08-12T05:06:41.538Z,96.06
2018-08-12T05:07:41.483Z,96.01
2018-08-12T05:08:41.471Z,96.12
2018-08-12T05:09:41.464Z,95.97
2018-08-12T05:10:41.469Z,94.95
2018-08-12T05:11:41.443Z,93.63
2018-08-12T05:12:41.426Z,93.12
2018-08-12T05:13:41.464Z,92.97
2018-08-12T05:14:41.405Z,92.15
2018-08-12T05:15:41.419Z,90.84
2018-08-12T05:16:41.386Z,90.33
2018-08-12T05:17:41.374Z,88.85
2018-08-12T05:18:41.361Z,89.58
2018-08-12T05:19:41.353Z,84.75
2018-08-12T05:20:41.419Z,82.57
2018-08-12T05:21:41.348Z,80.70
2018-08-12T05:22:41.317Z,80.16
2018-08-12T05:23:41.313Z,81.68
2018-08-12T05:24:41.299Z,81.74
2018-08-12T05:25:41.285Z,82.50
2018-08-12T05:26:41.295Z,80.73
2018-08-12T05:27:41.305Z,79.77
2018-08-12T05:28:41.268Z,79.06
2018-08-12T05:29:41.245Z,78.21
2018-08-12T05:30:41.245Z,77.77
2018-08-12T05:31:41.235Z,77.67
2018-08-12T05:32:41.214Z,76.95
2018-08-12T05:33:41.249Z,77.16
2018-08-12T05:34:41.188Z,76.01
2018-08-12T05:35:41.176Z,77.43
2018-08-12T05:36:41.183Z,77.12
2018-08-12T05:37:41.158Z,77.02
2018-08-12T05:38:41.143Z,76.10
2018-08-12T05:39:41.199Z,77.12
2018-08-12T05:40:41.126Z,75.80
2018-08-12T05:41:41.125Z,75.16
2018-08-12T05:42:41.098Z,73.94
2018-08-12T05:43:41.095Z,73.09
2018-08-12T05:44:41.081Z,72.58
2018-08-12T05:45:41.130Z,73.66
2018-08-12T05:46:41.071Z,72.85
2018-08-12T05:47:41.043Z,71.64
2018-08-12T05:48:41.032Z,72.01
2018-08-12T05:49:41.021Z,71.94
2018-08-12T05:50:41.011Z,72.21
2018-08-12T05:51:41.048Z,70.28
2018-08-12T05:52:40.988Z,69.03
2018-08-12T05:53:40.980Z,70.01
2018-08-12T05:54:40.970Z,67.58
2018-08-12T05:55:40.963Z,66.54
2018-08-12T05:56:40.961Z,66.44
2018-08-12T05:57:40.973Z,66.24
2018-08-12T05:58:40.924Z,65.90
2018-08-12T05:59:40.918Z,66.61
2018-08-12T06:00:40.903Z,66.17
2018-08-12T06:01:40.922Z,64.62
2018-08-12T06:02:40.894Z,65.81
2018-08-12T06:03:40.922Z,64.97
2018-08-12T06:04:40.864Z,62.54
2018-08-12T06:05:40.851Z,61.91
2018-08-12T06:06:40.836Z,60.46
2018-08-12T06:07:40.843Z,60.68
2018-08-12T06:08:40.818Z,55.99
2018-08-12T06:09:40.840Z,55.23
2018-08-12T06:10:40.795Z,54.05
2018-08-12T06:11:40.781Z,54.07
2018-08-12T06:12:40.789Z,51.32
2018-08-12T06:13:40.766Z,50.16
2018-08-12T06:14:40.749Z,50.52
2018-08-12T06:15:40.890Z,48.97
2018-08-12T06:16:40.741Z,47.35
2018-08-12T06:17:40.976Z,47.17
2018-08-12T06:18:40.832Z,47.33
2018-08-12T06:19:40.739Z,46.57
2018-08-12T06:20:42.307Z,49.22
2018-08-12T06:21:40.802Z,48.67
2018-08-12T06:22:40.677Z,49.05
2018-08-12T06:23:40.651Z,47.67
2018-08-12T06:24:40.639Z,48.99
2018-08-12T06:25:40.636Z,49.37
2018-08-12T06:26:40.616Z,47.47
2018-08-12T06:27:40.675Z,49.07
2018-08-12T06:28:40.594Z,50.46
2018-08-12T06:29:40.587Z,50.44
2018-08-12T06:30:40.576Z,49.04
2018-08-12T06:31:40.563Z,50.57
2018-08-12T06:32:40.565Z,50.32
2018-08-12T06:33:40.544Z,49.19
2018-08-12T06:34:40.558Z,50.32
2018-08-12T06:35:40.521Z,50.07
2018-08-12T06:36:40.517Z,47.45
2018-08-12T06:37:40.528Z,48.78
2018-08-12T06:38:40.484Z,45.86
2018-08-12T06:39:40.474Z,46.24
2018-08-12T06:40:40.464Z,46.46
2018-08-12T06:41:40.506Z,46.56
2018-08-12T06:42:40.458Z,46.35
2018-08-12T06:43:40.483Z,46.75
2018-08-12T06:44:40.418Z,47.03
2018-08-12T06:45:40.413Z,46.06
2018-08-12T06:46:40.396Z,44.45
2018-08-12T06:47:40.387Z,43.75
2018-08-12T06:48:40.433Z,44.84
2018-08-12T06:49:40.364Z,45.14
2018-08-12T06:50:40.353Z,45.22
2018-08-12T06:51:40.364Z,43.19
2018-08-12T06:52:40.329Z,43.19
2018-08-12T06:53:40.335Z,43.37
2018-08-12T06:54:40.340Z,43.16
2018-08-12T06:55:40.297Z,45.23
2018-08-12T06:56:40.284Z,43.13
2018-08-12T06:57:40.274Z,42.13
2018-08-12T06:58:40.276Z,42.49
2018-08-12T06:59:40.251Z,41.46
2018-08-12T07:00:40.278Z,41.44
2018-08-12T07:01:40.231Z,41.73
2018-08-12T07:02:40.220Z,40.62
2018-08-12T07:03:40.221Z,40.33
2018-08-12T07:04:40.202Z,39.81
2018-08-12T07:05:40.191Z,39.28
2018-08-12T07:06:40.211Z,40.33
2018-08-12T07:07:40.166Z,40.09
2018-08-12T07:08:40.172Z,41.46
2018-08-12T07:09:40.149Z,40.42
2018-08-12T07:10:40.136Z,40.41
2018-08-12T07:11:40.122Z,40.60
2018-08-12T07:12:40.161Z,39.69
2018-08-12T07:13:40.113Z,39.50
2018-08-12T07:14:40.089Z,37.22
2018-08-12T07:15:40.078Z,37.75
2018-08-12T07:16:40.069Z,40.58
2018-08-12T07:17:40.055Z,41.99
2018-08-12T07:18:40.098Z,42.47
2018-08-12T07:19:40.034Z,41.28
2018-08-12T07:20:40.024Z,40.26
2018-08-12T07:21:40.012Z,42.63
2018-08-12T07:22:40.002Z,41.83
2018-08-12T07:23:40.008Z,40.23
2018-08-12T07:24:40.067Z,39.87
2018-08-12T07:25:39.975Z,39.26
2018-08-12T07:26:39.959Z,39.67
2018-08-12T07:27:39.949Z,40.29
2018-08-12T07:28:39.949Z,39.61
2018-08-12T07:29:39.925Z,40.68
2018-08-12T07:30:39.932Z,43.85
2018-08-12T07:31:39.902Z,42.47
2018-08-12T07:32:39.891Z,40.72
2018-08-12T07:33:39.893Z,38.54
2018-08-12T07:34:39.868Z,39.22
2018-08-12T07:35:39.861Z,37.99
2018-08-12T07:36:39.891Z,37.85
2018-08-12T07:37:39.836Z,39.28
2018-08-12T07:38:39.894Z,42.01
2018-08-12T07:39:39.817Z,39.99
2018-08-12T07:40:39.814Z,39.24
2018-08-12T07:41:39.793Z,38.43
2018-08-12T07:42:39.819Z,37.11
2018-08-12T07:43:39.988Z,36.04
2018-08-12T07:44:39.850Z,36.37
2018-08-12T07:45:39.851Z,37.26
2018-08-12T07:46:39.818Z,36.37
2018-08-12T07:47:39.745Z,37.20
2018-08-12T07:48:39.771Z,37.99
2018-08-12T07:49:39.725Z,37.89
2018-08-12T07:50:39.694Z,37.02
2018-08-12T07:51:39.686Z,37.60
2018-08-12T07:52:39.678Z,37.15
2018-08-12T07:53:39.662Z,36.65
2018-08-12T07:54:39.894Z,36.75
2018-08-12T07:55:39.719Z,36.63
2018-08-12T07:56:39.628Z,35.43
2018-08-12T07:57:39.621Z,35.52
2018-08-12T07:58:39.609Z,36.22
2018-08-12T07:59:39.613Z,38.06
2018-08-12T08:00:39.590Z,37.08
2018-08-12T08:01:39.601Z,36.87
2018-08-12T08:02:39.569Z,36.85
2018-08-12T08:03:39.560Z,36.63
2018-08-12T08:04:39.559Z,36.97
2018-08-12T08:05:39.533Z,37.54
2018-08-12T08:06:39.524Z,37.08
2018-08-12T08:07:39.577Z,36.69
2018-08-12T08:08:39.514Z,37.00
2018-08-12T08:09:39.502Z,37.16
2018-08-12T08:10:39.480Z,35.88
2018-08-12T08:11:39.466Z,35.94
2018-08-12T08:12:39.517Z,35.49
2018-08-12T08:13:39.475Z,36.39
2018-08-12T08:14:39.448Z,36.95
2018-08-12T08:15:39.426Z,37.03
2018-08-12T08:16:39.417Z,35.05
2018-08-12T08:17:39.402Z,38.04
2018-08-12T08:18:39.390Z,35.55
2018-08-12T08:19:39.471Z,37.01
2018-08-12T08:20:39.370Z,35.48
2018-08-12T08:21:39.360Z,34.10
2018-08-12T08:22:39.356Z,32.82
2018-08-12T08:23:39.354Z,35.28
2018-08-12T08:24:39.344Z,33.13
2018-08-12T08:25:39.347Z,34.71
2018-08-12T08:26:39.347Z,34.00
2018-08-12T08:27:39.294Z,33.77
2018-08-12T08:28:39.282Z,33.97
2018-08-12T08:29:39.287Z,34.77
2018-08-12T08:30:39.263Z,34.69
2018-08-12T08:31:39.499Z,35.68
2018-08-12T08:32:39.282Z,35.46
2018-08-12T08:33:39.228Z,33.94
2018-08-12T08:34:39.244Z,35.94
2018-08-12T08:35:39.245Z,33.95
2018-08-12T08:36:39.203Z,34.69
2018-08-12T08:37:39.189Z,32.73
2018-08-12T08:38:39.222Z,37.41
2018-08-12T08:39:39.186Z,34.58
2018-08-12T08:40:39.162Z,35.27
2018-08-12T08:41:39.145Z,35.81
2018-08-12T08:42:39.132Z,34.87
2018-08-12T08:43:39.123Z,35.74
2018-08-12T08:44:39.162Z,34.67
2018-08-12T08:45:39.132Z,34.49
2018-08-12T08:46:39.099Z,34.69
2018-08-12T08:47:39.079Z,34.49
2018-08-12T08:48:39.068Z,34.39
2018-08-12T08:49:39.069Z,34.67
2018-08-12T08:50:39.058Z,35.56
2018-08-12T08:51:39.036Z,35.86
2018-08-12T08:52:39.064Z,34.87
2018-08-12T08:53:39.014Z,34.30
2018-08-12T08:54:39.020Z,34.08
2018-08-12T08:55:39.073Z,34.79
2018-08-12T08:56:38.989Z,34.43
2018-08-12T08:57:38.972Z,34.63
2018-08-12T08:58:38.994Z,35.22
2018-08-12T08:59:38.974Z,36.29
2018-08-12T09:00:38.978Z,38.30
2018-08-12T09:01:38.931Z,35.33
2018-08-12T09:02:38.931Z,33.77
2018-08-12T09:03:38.933Z,34.67
2018-08-12T09:04:38.925Z,34.91
2018-08-12T09:05:38.888Z,36.24
2018-08-12T09:06:38.899Z,35.94
2018-08-12T09:07:38.865Z,35.79
2018-08-12T09:08:39.068Z,35.74
2018-08-12T09:09:38.889Z,35.82
2018-08-12T09:10:39.006Z,36.41
2018-08-12T09:11:38.825Z,33.79
2018-08-12T09:12:38.826Z,34.38
2018-08-12T09:13:38.863Z,35.33
2018-08-12T09:14:38.828Z,35.08
2018-08-12T09:15:38.822Z,34.67
2018-08-12T09:16:38.819Z,35.24
2018-08-12T09:17:38.759Z,31.71
2018-08-12T09:18:38.748Z,34.22
2018-08-12T09:19:38.761Z,35.21
2018-08-12T09:20:38.740Z,33.07
2018-08-12T09:21:38.717Z,36.40
2018-08-12T09:22:38.708Z,34.00
2018-08-12T09:23:38.699Z,31.81
2018-08-12T09:24:38.694Z,31.01
2018-08-12T09:25:38.714Z,33.74
2018-08-12T09:26:38.697Z,31.20
2018-08-12T09:27:38.697Z,32.38
2018-08-12T09:28:38.646Z,31.60
2018-08-12T09:29:38.633Z,32.51
2018-08-12T09:30:38.634Z,33.00
2018-08-12T09:31:38.615Z,32.79
2018-08-12T09:32:38.621Z,32.78
2018-08-12T09:33:38.592Z,32.86
2018-08-12T09:34:38.633Z,34.64
2018-08-12T09:35:38.612Z,35.05
2018-08-12T09:36:38.560Z,32.59
2018-08-12T09:37:38.560Z,32.38
2018-08-12T09:38:38.553Z,33.20
2018-08-12T09:39:38.549Z,33.36
2018-08-12T09:40:38.532Z,33.53
2018-08-12T09:41:38.514Z,32.43
2018-08-12T09:42:38.510Z,32.76
2018-08-12T09:43:38.504Z,30.52
2018-08-12T09:44:38.509Z,30.84
2018-08-12T09:45:38.487Z,31.61
2018-08-12T09:46:38.455Z,32.46
2018-08-12T09:47:38.474Z,30.21
2018-08-12T09:48:38.443Z,33.94
2018-08-12T09:49:38.443Z,32.54
2018-08-12T09:50:38.451Z,32.64
2018-08-12T09:51:38.523Z,30.12
2018-08-12T09:52:38.410Z,31.89
2018-08-12T09:53:38.419Z,30.81
2018-08-12T09:54:38.381Z,31.41
2018-08-12T09:55:38.398Z,33.75
2018-08-12T09:56:38.372Z,31.58
2018-08-12T09:57:38.343Z,30.68
2018-08-12T09:58:38.348Z,33.20
2018-08-12T09:59:38.349Z,31.03
2018-08-12T10:00:38.346Z,29.80
2018-08-12T10:01:38.304Z,30.62
2018-08-12T10:02:38.305Z,32.79
2018-08-12T10:03:38.288Z,31.37
2018-08-12T10:04:38.289Z,30.55
2018-08-12T10:05:38.290Z,31.99
2018-08-12T10:06:38.267Z,31.87
2018-08-12T10:07:38.253Z,32.79
2018-08-12T10:08:38.239Z,31.79
2018-08-12T10:09:38.241Z,30.91
2018-08-12T10:10:38.404Z,31.50
2018-08-12T10:11:38.204Z,30.62
2018-08-12T10:12:38.200Z,31.74
2018-08-12T10:13:38.203Z,32.59
2018-08-12T10:14:38.185Z,35.52
2018-08-12T10:15:38.283Z,31.51
2018-08-12T10:16:38.153Z,34.77
2018-08-12T10:17:38.150Z,30.93
2018-08-12T10:18:38.175Z,29.85
2018-08-12T10:19:38.150Z,32.40
2018-08-12T10:20:38.142Z,32.57
2018-08-12T10:21:38.198Z,31.38
2018-08-12T10:22:38.114Z,30.22
2018-08-12T10:23:38.078Z,34.01
2018-08-12T10:24:38.077Z,31.74
2018-08-12T10:25:38.088Z,30.39
2018-08-12T10:26:38.058Z,30.57
2018-08-12T10:27:38.044Z,30.74
2018-08-12T10:28:38.044Z,30.33
2018-08-12T10:29:38.039Z,30.65
2018-08-12T10:30:38.036Z,29.79
2018-08-12T10:31:38.030Z,30.42
2018-08-12T10:32:37.996Z,30.02
2018-08-12T10:33:37.996Z,31.12
2018-08-12T10:34:38.000Z,31.40
2018-08-12T10:35:38.001Z,30.45
2018-08-12T10:36:37.961Z,30.77
2018-08-12T10:37:37.951Z,30.84
2018-08-12T10:38:37.935Z,31.20
2018-08-12T10:39:37.936Z,32.84
2018-08-12T10:40:37.920Z,30.46
2018-08-12T10:41:37.953Z,34.55
2018-08-12T10:42:37.898Z,29.94
2018-08-12T10:43:37.915Z,28.15
2018-08-12T10:44:37.890Z,30.20
2018-08-12T10:45:37.875Z,29.31
2018-08-12T10:46:37.894Z,28.54
2018-08-12T10:47:37.852Z,29.14
2018-08-12T10:48:37.857Z,28.96
2018-08-12T10:49:37.832Z,29.74
2018-08-12T10:50:37.839Z,29.46
2018-08-12T10:51:37.852Z,30.04
2018-08-12T10:52:37.840Z,28.96
2018-08-12T10:53:37.864Z,29.04
2018-08-12T10:54:37.794Z,30.20
2018-08-12T10:55:37.818Z,28.71
2018-08-12T10:56:37.822Z,29.22
2018-08-12T10:57:37.782Z,31.01
2018-08-12T10:58:37.781Z,29.77
2018-08-12T10:59:37.781Z,30.07
2018-08-12T11:00:37.732Z,30.65
2018-08-12T11:01:37.738Z,32.12
2018-08-12T11:02:37.709Z,30.52
2018-08-12T11:03:37.702Z,30.02
2018-08-12T11:04:37.714Z,30.19
2018-08-12T11:05:37.677Z,29.18
2018-08-12T11:06:37.683Z,28.04
2018-08-12T11:07:37.659Z,27.58
2018-08-12T11:08:37.655Z,31.54
2018-08-12T11:09:37.699Z,30.27
2018-08-12T11:10:37.627Z,30.26
2018-08-12T11:11:37.683Z,30.15
2018-08-12T11:12:37.668Z,29.58
2018-08-12T11:13:37.606Z,29.46
2018-08-12T11:14:37.607Z,30.37
2018-08-12T11:15:37.598Z,30.05
2018-08-12T11:16:37.613Z,32.39
2018-08-12T11:17:37.573Z,29.73
2018-08-12T11:18:37.573Z,31.38
2018-08-12T11:19:37.559Z,31.78
2018-08-12T11:20:37.659Z,29.32
2018-08-12T11:21:37.542Z,32.04
2018-08-12T11:22:37.562Z,28.74
2018-08-12T11:23:37.508Z,28.86
2018-08-12T11:24:37.523Z,29.58
2018-08-12T11:25:37.504Z,31.71
2018-08-12T11:26:37.503Z,30.13
2018-08-12T11:27:37.507Z,29.55
2018-08-12T11:28:37.490Z,28.99
2018-08-12T11:29:37.472Z,32.54
2018-08-12T11:30:37.486Z,30.00
2018-08-12T11:31:37.443Z,30.29
2018-08-12T11:32:37.504Z,30.46
2018-08-12T11:33:37.431Z,30.54
2018-08-12T11:34:37.436Z,31.11
2018-08-12T11:35:37.400Z,29.73
2018-08-12T11:36:37.397Z,30.49
2018-08-12T11:37:37.408Z,30.10
2018-08-12T11:38:37.393Z,31.64
2018-08-12T11:39:37.392Z,29.88
2018-08-12T11:40:37.357Z,29.57
2018-08-12T11:41:37.373Z,28.97
2018-08-12T11:42:37.432Z,31.82
2018-08-12T11:43:37.332Z,28.88
2018-08-12T11:44:37.316Z,30.03
2018-08-12T11:45:37.351Z,27.90
2018-08-12T11:46:37.300Z,28.40
2018-08-12T11:47:37.375Z,29.35
2018-08-12T11:48:37.286Z,30.47
2018-08-12T11:49:37.272Z,31.40
2018-08-12T11:50:37.302Z,31.57
2018-08-12T11:51:37.257Z,31.54
2018-08-12T11:52:37.265Z,31.51
2018-08-12T11:53:37.238Z,27.95
2018-08-12T11:54:37.230Z,31.74
2018-08-12T11:55:37.222Z,29.00
2018-08-12T11:56:37.305Z,30.69
2018-08-12T11:57:37.246Z,30.12
2018-08-12T11:58:37.198Z,31.57
2018-08-12T11:59:37.192Z,30.76
2018-08-12T12:00:37.196Z,30.18
2018-08-12T12:01:37.172Z,29.81
2018-08-12T12:02:37.188Z,31.88
2018-08-12T12:03:37.188Z,29.42
2018-08-12T12:04:37.147Z,29.44
2018-08-12T12:05:37.137Z,30.51
2018-08-12T12:06:37.128Z,30.22
2018-08-12T12:07:37.134Z,31.45
2018-08-12T12:08:37.109Z,30.16
2018-08-12T12:09:37.129Z,29.75
2018-08-12T12:10:37.092Z,29.54
2018-08-12T12:11:37.082Z,27.39
2018-08-12T12:12:37.090Z,27.78
2018-08-12T12:13:37.063Z,27.73
2018-08-12T12:14:37.054Z,32.52
2018-08-12T12:15:37.053Z,30.26
2018-08-12T12:16:37.084Z,29.07
2018-08-12T12:17:37.083Z,28.78
2018-08-12T12:18:37.033Z,27.72
2018-08-12T12:19:37.042Z,28.71
2018-08-12T12:20:37.094Z,29.96
2018-08-12T12:21:37.026Z,29.06
2018-08-12T12:22:36.982Z,27.68
2018-08-12T12:23:37.001Z,27.20
2018-08-12T12:24:37.006Z,27.50
2018-08-12T12:25:36.955Z,26.32
2018-08-12T12:26:36.985Z,26.92
2018-08-12T12:27:36.939Z,26.92
2018-08-12T12:28:36.945Z,27.89
2018-08-12T12:29:36.984Z,29.25
2018-08-12T12:30:36.914Z,27.61
2018-08-12T12:31:36.901Z,26.62
2018-08-12T12:32:36.889Z,26.61
2018-08-12T12:33:36.892Z,27.30
2018-08-12T12:34:36.888Z,27.20
2018-08-12T12:35:36.983Z,28.67
2018-08-12T12:36:36.863Z,27.12
2018-08-12T12:37:36.884Z,26.42
2018-08-12T12:38:36.858Z,27.47
2018-08-12T12:39:36.867Z,26.09
2018-08-12T12:40:36.813Z,25.38
2018-08-12T12:41:36.829Z,23.25
2018-08-12T12:42:36.813Z,23.83
2018-08-12T12:43:36.815Z,25.38
2018-08-12T12:44:36.789Z,24.32
2018-08-12T12:45:36.822Z,23.83
2018-08-12T12:46:36.766Z,23.73
2018-08-12T12:47:36.787Z,26.58
2018-08-12T12:48:36.784Z,25.69
2018-08-12T12:49:36.850Z,24.71
2018-08-12T12:50:36.825Z,23.05
2018-08-12T12:51:36.717Z,23.45
2018-08-12T12:52:36.744Z,23.36